Time;durP1;ratioP1;P1;durP2;ratioP2;P2;SDS_P1;SDS_P2;PMS_P1;PMS_P2;Temp;Humidity;BMP_temperature;BMP_pressure;BME280_temperature;BME280_humidity;BME280_pressure;Samples;Min_cycle;Max_cycle;Signal;HPM_P1;HPM_P2
2022/03/17 00:02:06;;;;;;;14.02;3.40;;;;;;;;;;5003002;28;20651;-79
2022/03/17 00:04:32;;;;;;;8.38;3.33;;;;;;;;;;4984480;28;20037;-80
2022/03/17 00:06:58;;;;;;;18.50;4.10;;;;;;;;;;5001855;28;20049;-80
2022/03/17 00:09:24;;;;;;;9.32;3.45;;;;;;;;;;4998438;28;20626;-80
2022/03/17 00:11:49;;;;;;;14.55;3.50;;;;;;;;;;5010735;28;20125;-80
2022/03/17 00:14:15;;;;;;;9.18;3.88;;;;;;;;;;4999370;28;20045;-80
2022/03/17 00:16:40;;;;;;;15.00;3.70;;;;;;;;;;4983093;28;21954;-79
2022/03/17 00:19:07;;;;;;;11.57;3.90;;;;;;;;;;4983527;28;20549;-79
2022/03/17 00:21:37;;;;;;;15.32;3.92;;;;;;;;;;4997661;28;20034;-79
2022/03/17 00:24:06;;;;;;;18.30;4.60;;;;;;;;;;4996089;28;20042;-79
2022/03/17 00:26:33;;;;;;;10.25;3.85;;;;;;;;;;4974443;28;20041;-80
2022/03/17 00:28:58;;;;;;;13.23;3.90;;;;;;;;;;4997814;28;20751;-79
2022/03/17 00:31:24;;;;;;;13.45;4.53;;;;;;;;;;5007982;28;20049;-80
2022/03/17 00:33:49;;;;;;;12.80;3.90;;;;;;;;;;5002259;28;20041;-80
2022/03/17 00:36:17;;;;;;;13.05;3.92;;;;;;;;;;5003598;28;20092;-80
2022/03/17 00:38:43;;;;;;;9.98;3.75;;;;;;;;;;4995085;28;20068;-80
2022/03/17 00:41:08;;;;;;;14.07;3.45;;;;;;;;;;5010167;28;20062;-80
2022/03/17 00:43:34;;;;;;;25.73;4.20;;;;;;;;;;5004817;28;20495;-80
2022/03/17 00:45:59;;;;;;;13.38;3.45;;;;;;;;;;4992896;28;20030;-81
2022/03/17 00:48:25;;;;;;;10.43;3.85;;;;;;;;;;4998314;28;20029;-81
2022/03/17 00:50:50;;;;;;;15.43;4.03;;;;;;;;;;5000188;28;20050;-81
2022/03/17 00:53:16;;;;;;;15.15;4.32;;;;;;;;;;4963487;28;20045;-81
2022/03/17 00:55:41;;;;;;;13.82;3.83;;;;;;;;;;5006965;28;20034;-81
2022/03/17 00:58:10;;;;;;;13.30;3.88;;;;;;;;;;5005973;28;20088;-81
2022/03/17 01:00:36;;;;;;;11.98;3.20;;;;;;;;;;4981180;28;20054;-81
2022/03/17 01:03:02;;;;;;;15.93;4.78;;;;;;;;;;5006352;28;20026;-81
2022/03/17 01:05:30;;;;;;;9.05;3.17;;;;;;;;;;4993808;28;20030;-81
2022/03/17 01:07:56;;;;;;;15.88;4.13;;;;;;;;;;4987144;28;20435;-81
2022/03/17 01:10:22;;;;;;;13.43;4.13;;;;;;;;;;5004200;28;20037;-81
2022/03/17 01:12:50;;;;;;;17.98;3.70;;;;;;;;;;5003143;28;20029;-81
2022/03/17 01:15:18;;;;;;;15.27;3.78;;;;;;;;;;4998415;28;20605;-81
2022/03/17 01:17:43;;;;;;;16.08;4.35;;;;;;;;;;4999341;28;20124;-81
2022/03/17 01:20:11;;;;;;;13.50;4.55;;;;;;;;;;5003852;28;20105;-81
2022/03/17 01:22:36;;;;;;;8.45;3.60;;;;;;;;;;5001826;28;20482;-81
2022/03/17 01:25:03;;;;;;;15.85;3.65;;;;;;;;;;5003898;28;20028;-81
2022/03/17 01:27:29;;;;;;;10.70;4.10;;;;;;;;;;5000503;28;20108;-81
2022/03/17 01:29:55;;;;;;;16.55;4.18;;;;;;;;;;4987551;28;20146;-81
2022/03/17 01:32:22;;;;;;;13.48;3.40;;;;;;;;;;5007900;28;20018;-81
2022/03/17 01:34:49;;;;;;;18.45;4.25;;;;;;;;;;4988258;28;20038;-80
2022/03/17 01:37:15;;;;;;;13.18;3.92;;;;;;;;;;5005731;28;20037;-81
2022/03/17 01:39:41;;;;;;;15.43;4.55;;;;;;;;;;5002915;28;20390;-80
2022/03/17 01:42:08;;;;;;;16.17;4.28;;;;;;;;;;4979317;28;20038;-80
2022/03/17 01:44:35;;;;;;;13.93;3.90;;;;;;;;;;5004453;28;20095;-80
2022/03/17 01:49:46;;;;;;;16.55;4.80;;;;;;;;;;5004426;28;20057;-80
2022/03/17 01:52:11;;;;;;;22.92;5.03;;;;;;;;;;5001855;28;20045;-80
2022/03/17 01:54:37;;;;;;;14.15;4.68;;;;;;;;;;5000564;28;20065;-80
2022/03/17 01:57:05;;;;;;;17.75;4.20;;;;;;;;;;4988374;28;20067;-80
2022/03/17 01:59:33;;;;;;;10.70;4.30;;;;;;;;;;5002666;28;20053;-80
2022/03/17 02:01:58;;;;;;;15.95;4.60;;;;;;;;;;4997040;28;20034;-80
2022/03/17 02:04:25;;;;;;;20.42;4.65;;;;;;;;;;5002075;28;20041;-81
2022/03/17 02:06:51;;;;;;;8.75;3.85;;;;;;;;;;5003971;28;20032;-80
2022/03/17 02:09:18;;;;;;;17.13;4.90;;;;;;;;;;5005106;28;22505;-80
2022/03/17 02:14:34;;;;;;;12.85;4.63;;;;;;;;;;4994308;28;20608;-80
2022/03/17 02:17:00;;;;;;;9.55;4.20;;;;;;;;;;4998222;28;20099;-80
2022/03/17 02:19:25;;;;;;;12.90;4.30;;;;;;;;;;4987951;28;20063;-80
2022/03/17 02:21:51;;;;;;;15.05;4.40;;;;;;;;;;5001013;28;20018;-80
2022/03/17 02:27:02;;;;;;;21.50;4.93;;;;;;;;;;5002367;28;20040;-80
2022/03/17 02:29:29;;;;;;;14.38;4.50;;;;;;;;;;4984823;28;20510;-80
2022/03/17 02:31:55;;;;;;;13.68;4.63;;;;;;;;;;4991347;28;20070;-80
2022/03/17 02:34:21;;;;;;;9.35;3.88;;;;;;;;;;5011382;28;20120;-80
2022/03/17 02:36:48;;;;;;;10.70;3.92;;;;;;;;;;5002716;28;20393;-80
2022/03/17 02:39:15;;;;;;;10.35;4.88;;;;;;;;;;5011076;28;20033;-80
2022/03/17 02:41:41;;;;;;;11.77;4.60;;;;;;;;;;5006468;28;20049;-81
2022/03/17 02:44:06;;;;;;;11.70;3.25;;;;;;;;;;4985716;28;20446;-80
2022/03/17 02:46:32;;;;;;;19.27;4.65;;;;;;;;;;5008293;28;20040;-80
2022/03/17 02:48:57;;;;;;;11.20;3.47;;;;;;;;;;4987071;28;20120;-80
2022/03/17 02:51:23;;;;;;;10.68;2.60;;;;;;;;;;5000549;28;20128;-80
2022/03/17 02:53:48;;;;;;;13.88;2.60;;;;;;;;;;5004326;28;20208;-80
2022/03/17 02:56:14;;;;;;;3.47;1.58;;;;;;;;;;5000277;28;20164;-81
2022/03/17 02:58:39;;;;;;;7.20;1.60;;;;;;;;;;4983880;28;20514;-80
2022/03/17 03:01:05;;;;;;;5.15;1.13;;;;;;;;;;5008342;28;20025;-80
2022/03/17 03:03:30;;;;;;;4.13;1.15;;;;;;;;;;5005112;28;20033;-80
2022/03/17 03:05:56;;;;;;;8.60;0.70;;;;;;;;;;5000548;28;20030;-81
2022/03/17 03:08:22;;;;;;;10.80;1.45;;;;;;;;;;5006123;28;20505;-80
2022/03/17 03:10:48;;;;;;;3.83;0.80;;;;;;;;;;4987855;28;20044;-80
2022/03/17 03:13:14;;;;;;;4.50;1.00;;;;;;;;;;5003275;28;20038;-81
2022/03/17 03:15:39;;;;;;;7.65;0.90;;;;;;;;;;5004920;28;20091;-80
2022/03/17 03:18:05;;;;;;;6.93;0.65;;;;;;;;;;4972287;28;20478;-79
2022/03/17 03:20:31;;;;;;;3.05;0.75;;;;;;;;;;4989332;28;20102;-81
2022/03/17 03:22:57;;;;;;;1.55;0.47;;;;;;;;;;4984238;28;20053;-80
2022/03/17 03:25:23;;;;;;;4.93;0.60;;;;;;;;;;4999567;28;20017;-80
2022/03/17 03:27:48;;;;;;;6.57;0.90;;;;;;;;;;5020450;28;20423;-80
2022/03/17 03:30:15;;;;;;;2.55;0.55;;;;;;;;;;5010652;28;20051;-80
2022/03/17 03:32:43;;;;;;;1.67;0.30;;;;;;;;;;4974306;28;20058;-81
2022/03/17 03:37:54;;;;;;;2.17;0.43;;;;;;;;;;4998335;28;20745;-81
2022/03/17 03:40:19;;;;;;;2.35;0.43;;;;;;;;;;5002094;28;20033;-81
2022/03/17 03:42:45;;;;;;;7.28;0.50;;;;;;;;;;4981410;28;20061;-81
2022/03/17 03:45:11;;;;;;;3.85;0.43;;;;;;;;;;4997091;28;20038;-81
2022/03/17 03:47:36;;;;;;;3.35;0.63;;;;;;;;;;4992745;28;20053;-82
2022/03/17 03:50:03;;;;;;;3.10;0.20;;;;;;;;;;5002681;28;20065;-81
2022/03/17 03:52:29;;;;;;;5.05;0.43;;;;;;;;;;5003419;28;20132;-81
2022/03/17 03:54:54;;;;;;;2.70;0.22;;;;;;;;;;4999474;28;20583;-81
2022/03/17 03:57:20;;;;;;;1.25;0.28;;;;;;;;;;5004851;28;20030;-80
2022/03/17 03:59:46;;;;;;;4.97;0.65;;;;;;;;;;4989626;28;20543;-81
2022/03/17 04:02:11;;;;;;;1.10;0.20;;;;;;;;;;5014361;28;20029;-81
2022/03/17 04:04:40;;;;;;;2.83;0.25;;;;;;;;;;5001427;28;20026;-81
2022/03/17 04:07:11;;;;;;;8.50;0.28;;;;;;;;;;4997711;28;20030;-82
2022/03/17 04:09:40;;;;;;;3.47;0.30;;;;;;;;;;5004879;28;20026;-81
2022/03/17 04:12:10;;;;;;;7.22;0.50;;;;;;;;;;5001097;28;20060;-80
2022/03/17 04:14:36;;;;;;;1.13;0.20;;;;;;;;;;5001262;28;20152;-81
2022/03/17 04:17:02;;;;;;;2.03;0.52;;;;;;;;;;5004702;28;20691;-80
2022/03/17 04:19:28;;;;;;;6.05;0.50;;;;;;;;;;5001466;28;20088;-80
2022/03/17 04:21:54;;;;;;;0.60;0.10;;;;;;;;;;4985531;28;20083;-79
2022/03/17 04:24:20;;;;;;;4.38;0.20;;;;;;;;;;5001153;28;20632;-80
2022/03/17 04:26:47;;;;;;;1.98;0.10;;;;;;;;;;4996158;28;20038;-81
2022/03/17 04:29:13;;;;;;;1.05;0.20;;;;;;;;;;5004624;28;20712;-81
2022/03/17 04:31:40;;;;;;;1.20;0.20;;;;;;;;;;4999901;28;20863;-81
2022/03/17 04:34:06;;;;;;;1.67;0.20;;;;;;;;;;5000443;28;20026;-81
2022/03/17 04:36:33;;;;;;;2.90;0.28;;;;;;;;;;5000377;28;20118;-80
2022/03/17 04:39:02;;;;;;;2.10;0.10;;;;;;;;;;4989843;28;20243;-81
2022/03/17 04:41:28;;;;;;;1.05;0.10;;;;;;;;;;5003233;28;20509;-81
2022/03/17 04:43:54;;;;;;;1.63;0.20;;;;;;;;;;5002803;28;20045;-82
2022/03/17 04:46:20;;;;;;;1.23;0.13;;;;;;;;;;4999562;28;20038;-80
2022/03/17 04:48:46;;;;;;;1.08;0.15;;;;;;;;;;4984522;28;20120;-82
2022/03/17 04:51:11;;;;;;;1.67;0.10;;;;;;;;;;5020932;28;20050;-83
2022/03/17 04:53:37;;;;;;;0.40;0.10;;;;;;;;;;4986792;28;20032;-80
2022/03/17 04:56:09;;;;;;;0.38;0.00;;;;;;;;;;5006174;28;20044;-80
2022/03/17 04:58:36;;;;;;;2.97;0.47;;;;;;;;;;5006482;28;20038;-81
2022/03/17 05:01:04;;;;;;;3.45;0.20;;;;;;;;;;5006247;28;20030;-80
2022/03/17 05:03:29;;;;;;;1.13;0.10;;;;;;;;;;5003025;28;20033;-80
2022/03/17 05:05:56;;;;;;;2.70;0.35;;;;;;;;;;5007327;28;20029;-80
2022/03/17 05:08:22;;;;;;;2.80;0.20;;;;;;;;;;5005820;28;20022;-81
2022/03/17 05:10:48;;;;;;;3.25;0.15;;;;;;;;;;5022509;28;20036;-81
2022/03/17 05:13:16;;;;;;;4.38;0.20;;;;;;;;;;5004965;28;20040;-80
2022/03/17 05:15:42;;;;;;;6.13;0.80;;;;;;;;;;5000355;28;20053;-82
2022/03/17 05:18:08;;;;;;;2.42;0.28;;;;;;;;;;5004934;28;20171;-81
2022/03/17 05:20:38;;;;;;;5.03;0.30;;;;;;;;;;5008885;28;20041;-81
2022/03/17 05:23:12;;;;;;;2.50;0.10;;;;;;;;;;5007299;28;20033;-80
2022/03/17 05:25:39;;;;;;;2.72;0.10;;;;;;;;;;5017596;28;20037;-82
2022/03/17 05:28:05;;;;;;;5.53;0.50;;;;;;;;;;5026924;28;20041;-81
2022/03/17 05:30:31;;;;;;;5.78;0.20;;;;;;;;;;5020119;28;20488;-80
2022/03/17 05:32:57;;;;;;;1.30;0.20;;;;;;;;;;4985561;28;20026;-81
2022/03/17 05:35:24;;;;;;;1.90;0.25;;;;;;;;;;5017903;28;20029;-80
2022/03/17 05:37:50;;;;;;;5.85;0.13;;;;;;;;;;5004494;28;20029;-82
2022/03/17 05:40:17;;;;;;;1.60;0.30;;;;;;;;;;5002703;28;20043;-81
2022/03/17 05:42:47;;;;;;;1.15;0.00;;;;;;;;;;4988914;28;20124;-81
2022/03/17 05:45:17;;;;;;;5.78;0.17;;;;;;;;;;5007088;28;20037;-82
2022/03/17 05:47:45;;;;;;;5.25;0.22;;;;;;;;;;5004079;28;20028;-81
2022/03/17 05:50:13;;;;;;;0.68;0.10;;;;;;;;;;5017932;28;20501;-82
2022/03/17 05:52:42;;;;;;;4.63;0.22;;;;;;;;;;4999784;28;20050;-82
2022/03/17 05:55:12;;;;;;;2.78;0.20;;;;;;;;;;5001878;28;20045;-81
2022/03/17 05:57:43;;;;;;;1.92;0.35;;;;;;;;;;5007807;28;20026;-81
2022/03/17 06:00:11;;;;;;;2.00;0.10;;;;;;;;;;4992254;28;20034;-82
2022/03/17 06:02:37;;;;;;;5.50;0.47;;;;;;;;;;4987135;28;20172;-81
2022/03/17 06:05:04;;;;;;;2.55;0.20;;;;;;;;;;5002099;28;20077;-82
2022/03/17 06:07:37;;;;;;;1.15;0.20;;;;;;;;;;5006010;28;20045;-83
2022/03/17 06:10:05;;;;;;;5.85;0.32;;;;;;;;;;5003887;28;20144;-81
2022/03/17 06:12:31;;;;;;;0.65;0.17;;;;;;;;;;5003032;28;20030;-80
2022/03/17 06:14:57;;;;;;;5.43;0.25;;;;;;;;;;5003233;28;20042;-81
2022/03/17 06:17:23;;;;;;;5.05;0.52;;;;;;;;;;5002127;28;20034;-82
2022/03/17 06:19:48;;;;;;;1.27;0.10;;;;;;;;;;5000709;28;20485;-81
2022/03/17 06:22:13;;;;;;;16.92;2.05;;;;;;;;;;4984891;28;20498;-81
2022/03/17 06:24:39;;;;;;;3.90;0.50;;;;;;;;;;5000692;28;20042;-82
2022/03/17 06:27:05;;;;;;;1.80;0.10;;;;;;;;;;5006480;28;20100;-79
2022/03/17 06:29:30;;;;;;;6.78;0.28;;;;;;;;;;4990973;28;20516;-85
2022/03/17 06:31:56;;;;;;;3.25;0.40;;;;;;;;;;4988713;28;20065;-81
2022/03/17 06:34:22;;;;;;;4.60;0.30;;;;;;;;;;5003787;28;20029;-82
2022/03/17 06:36:47;;;;;;;2.47;0.20;;;;;;;;;;4969761;28;20026;-82
2022/03/17 06:39:13;;;;;;;1.83;0.30;;;;;;;;;;4973204;28;20044;-88
2022/03/17 06:41:38;;;;;;;2.65;0.55;;;;;;;;;;4985561;28;20033;-82
2022/03/17 06:44:04;;;;;;;3.75;0.08;;;;;;;;;;4998565;28;20041;-80
2022/03/17 06:46:30;;;;;;;3.20;0.10;;;;;;;;;;4983057;28;20121;-81
2022/03/17 06:48:56;;;;;;;4.00;0.30;;;;;;;;;;4987495;28;20038;-80
2022/03/17 06:51:21;;;;;;;2.75;0.15;;;;;;;;;;4984478;28;20105;-83
2022/03/17 06:53:47;;;;;;;1.42;0.20;;;;;;;;;;5001935;28;20065;-82
2022/03/17 06:56:13;;;;;;;2.55;0.20;;;;;;;;;;5002953;28;20045;-81
2022/03/17 06:58:39;;;;;;;0.10;0.10;;;;;;;;;;4989342;28;20486;-81
2022/03/17 07:01:04;;;;;;;3.53;0.30;;;;;;;;;;5001392;28;20045;-82
2022/03/17 07:03:30;;;;;;;4.97;0.35;;;;;;;;;;4985395;28;20030;-84
2022/03/17 07:05:55;;;;;;;4.30;0.50;;;;;;;;;;5002849;28;20030;-83
2022/03/17 07:08:24;;;;;;;2.22;0.20;;;;;;;;;;4966051;28;20441;-81
2022/03/17 07:10:49;;;;;;;6.13;0.43;;;;;;;;;;5013742;28;20037;-83
2022/03/17 07:13:16;;;;;;;1.83;0.25;;;;;;;;;;5000379;28;20069;-83
2022/03/17 07:15:42;;;;;;;6.30;0.57;;;;;;;;;;4981803;28;20046;-84
2022/03/17 07:18:07;;;;;;;2.65;0.25;;;;;;;;;;4969212;28;20030;-83
2022/03/17 07:20:33;;;;;;;4.20;0.20;;;;;;;;;;4972635;28;20125;-85
2022/03/17 07:22:59;;;;;;;13.95;0.20;;;;;;;;;;4985038;28;20121;-81
2022/03/17 07:25:25;;;;;;;5.95;0.45;;;;;;;;;;4999033;28;20527;-82
2022/03/17 07:27:51;;;;;;;6.70;0.25;;;;;;;;;;5002247;28;20117;-81
2022/03/17 07:30:20;;;;;;;8.60;1.63;;;;;;;;;;5002456;28;20041;-84
2022/03/17 07:32:52;;;;;;;3.80;0.22;;;;;;;;;;4998278;28;20693;-83
2022/03/17 07:35:18;;;;;;;3.70;0.20;;;;;;;;;;5001333;28;20521;-81
2022/03/17 07:37:44;;;;;;;2.50;0.30;;;;;;;;;;4976484;28;20054;-86
2022/03/17 07:40:11;;;;;;;6.20;0.50;;;;;;;;;;5006685;28;20036;-83
2022/03/17 07:42:36;;;;;;;2.20;0.20;;;;;;;;;;5012785;28;20022;-84
2022/03/17 07:45:03;;;;;;;10.00;0.82;;;;;;;;;;4999836;28;20551;-81
2022/03/17 07:47:28;;;;;;;3.08;0.25;;;;;;;;;;4999926;28;20481;-83
2022/03/17 07:49:54;;;;;;;7.70;0.55;;;;;;;;;;4985506;28;20072;-84
2022/03/17 07:52:20;;;;;;;10.15;0.50;;;;;;;;;;4999425;28;20033;-83
2022/03/17 07:54:48;;;;;;;16.38;0.60;;;;;;;;;;4981325;28;20042;-87
2022/03/17 07:57:14;;;;;;;4.10;0.35;;;;;;;;;;4999123;28;20076;-86
2022/03/17 07:59:42;;;;;;;5.03;0.57;;;;;;;;;;4996785;28;20406;-84
2022/03/17 08:02:08;;;;;;;3.92;0.30;;;;;;;;;;4998937;28;20615;-84
2022/03/17 08:04:34;;;;;;;9.90;1.27;;;;;;;;;;4972939;28;20042;-81
2022/03/17 08:07:01;;;;;;;18.92;0.50;;;;;;;;;;4968499;28;20157;-83
2022/03/17 08:09:27;;;;;;;6.72;0.35;;;;;;;;;;5001193;28;20030;-87
2022/03/17 08:11:53;;;;;;;5.82;0.60;;;;;;;;;;4994339;28;20026;-83
2022/03/17 08:14:18;;;;;;;3.15;0.30;;;;;;;;;;5000634;28;20517;-84
2022/03/17 08:16:44;;;;;;;6.03;0.20;;;;;;;;;;4995810;28;20541;-81
2022/03/17 08:19:11;;;;;;;8.70;0.52;;;;;;;;;;4983579;28;20038;-83
2022/03/17 08:21:37;;;;;;;11.13;0.50;;;;;;;;;;4985768;28;20091;-83
2022/03/17 08:24:03;;;;;;;12.73;0.93;;;;;;;;;;4999342;28;20037;-85
2022/03/17 08:26:28;;;;;;;10.32;0.60;;;;;;;;;;4985075;28;20029;-86
2022/03/17 08:28:54;;;;;;;9.02;0.50;;;;;;;;;;4983147;28;20157;-86
2022/03/17 08:31:19;;;;;;;7.25;0.45;;;;;;;;;;4967757;28;21735;-84
2022/03/17 08:33:45;;;;;;;8.75;0.68;;;;;;;;;;4996435;28;20068;-83
2022/03/17 08:36:10;;;;;;;8.55;0.57;;;;;;;;;;5003922;28;20042;-83
2022/03/17 08:38:36;;;;;;;6.65;0.63;;;;;;;;;;4999341;28;20029;-83
2022/03/17 08:41:01;;;;;;;5.93;0.57;;;;;;;;;;4985230;28;20073;-86
2022/03/17 08:43:27;;;;;;;7.18;0.40;;;;;;;;;;4983048;28;20072;-85
2022/03/17 08:51:28;;;;;;;5.93;0.55;;;;;;;;;;5036154;28;20927;-57
2022/03/17 08:53:55;;;;;;;6.55;0.55;;;;;;;;;;5031214;28;20117;-57
2022/03/17 08:56:21;;;;;;;5.60;0.40;;;;;;;;;;5035932;28;20071;-56
2022/03/17 08:58:46;;;;;;;6.90;0.75;;;;;;;;;;5018251;28;20479;-56
2022/03/17 09:01:12;;;;;;;12.45;0.63;;;;;;;;;;5036224;28;20033;-56
2022/03/17 09:03:37;;;;;;;8.43;0.57;;;;;;;;;;5044319;28;20039;-57
2022/03/17 09:06:03;;;;;;;2.10;0.25;;;;;;;;;;5039817;28;20041;-56
2022/03/17 09:08:29;;;;;;;12.30;1.08;;;;;;;;;;5032322;28;20040;-57
2022/03/17 09:10:55;;;;;;;6.35;0.90;;;;;;;;;;5044572;28;20526;-57
2022/03/17 09:13:23;;;;;;;9.68;0.90;;;;;;;;;;5041543;28;20060;-56
2022/03/17 09:15:49;;;;;;;2.88;0.35;;;;;;;;;;5044055;28;20041;-56
2022/03/17 09:18:15;;;;;;;4.65;0.65;;;;;;;;;;5046145;28;20358;-57
2022/03/17 09:20:41;;;;;;;8.20;1.77;;;;;;;;;;5036721;28;20402;-56
2022/03/17 09:23:07;;;;;;;5.15;0.57;;;;;;;;;;5038457;28;20244;-57
2022/03/17 09:25:34;;;;;;;12.02;0.68;;;;;;;;;;5028439;28;20036;-57
2022/03/17 09:28:00;;;;;;;7.63;0.60;;;;;;;;;;5034647;28;20211;-57
2022/03/17 09:30:26;;;;;;;12.73;0.73;;;;;;;;;;5026276;28;21098;-56
2022/03/17 09:32:52;;;;;;;5.22;0.70;;;;;;;;;;5027261;28;20059;-57
2022/03/17 09:35:19;;;;;;;7.55;1.50;;;;;;;;;;5012367;28;20135;-56
2022/03/17 09:37:44;;;;;;;13.07;1.52;;;;;;;;;;5022273;28;20044;-57
2022/03/17 09:40:10;;;;;;;12.50;1.35;;;;;;;;;;5022797;28;20400;-56
2022/03/17 09:42:38;;;;;;;9.95;0.93;;;;;;;;;;5004740;28;20079;-57
2022/03/17 09:45:05;;;;;;;13.57;1.05;;;;;;;;;;5027388;28;20041;-57
2022/03/17 09:47:34;;;;;;;13.40;1.13;;;;;;;;;;5033993;28;20056;-57
2022/03/17 09:50:01;;;;;;;9.30;0.40;;;;;;;;;;5029104;28;20032;-57
2022/03/17 09:52:27;;;;;;;12.40;0.93;;;;;;;;;;5029971;28;20040;-57
2022/03/17 09:54:53;;;;;;;14.05;1.45;;;;;;;;;;5025182;28;20025;-57
2022/03/17 09:57:20;;;;;;;10.52;1.25;;;;;;;;;;5020873;28;20460;-57
2022/03/17 09:59:48;;;;;;;6.30;0.60;;;;;;;;;;5034333;28;20039;-57
2022/03/17 10:02:18;;;;;;;8.57;1.55;;;;;;;;;;5026777;28;20033;-57
2022/03/17 10:04:48;;;;;;;15.27;1.73;;;;;;;;;;5024019;28;20391;-57
2022/03/17 10:07:18;;;;;;;15.95;1.45;;;;;;;;;;5032249;28;20579;-55
2022/03/17 10:09:47;;;;;;;7.93;0.40;;;;;;;;;;5025929;28;20037;-57
2022/03/17 10:12:14;;;;;;;5.45;0.55;;;;;;;;;;5033071;28;20033;-57
2022/03/17 10:14:53;;;;;;;10.85;1.60;;;;;;;;;;5037875;28;20029;-57
2022/03/17 10:17:39;;;;;;;12.00;1.77;;;;;;;;;;5035299;28;20030;-57
2022/03/17 10:20:25;;;;;;;14.73;1.77;;;;;;;;;;5037530;28;20042;-57
2022/03/17 10:23:02;;;;;;;14.15;0.93;;;;;;;;;;5030362;28;20074;-57
2022/03/17 10:25:31;;;;;;;14.07;1.73;;;;;;;;;;5035548;28;20041;-57
2022/03/17 10:27:58;;;;;;;14.95;2.28;;;;;;;;;;5041820;28;20021;-57
2022/03/17 10:30:30;;;;;;;9.70;1.52;;;;;;;;;;5036336;28;20041;-57
2022/03/17 10:33:03;;;;;;;14.80;2.45;;;;;;;;;;5026118;28;20025;-57
2022/03/17 10:35:35;;;;;;;22.00;1.92;;;;;;;;;;5032854;28;20080;-57
2022/03/17 10:38:13;;;;;;;;;;;;;;;;;;5032552;28;20382;-57
2022/03/17 10:40:38;;;;;;;14.35;1.75;;;;;;;;;;5029140;28;19916;-57
2022/03/17 10:43:14;;;;;;;12.02;1.83;;;;;;;;;;5029985;28;20025;-57
2022/03/17 10:45:40;;;;;;;13.95;1.73;;;;;;;;;;5035290;28;20454;-57
2022/03/17 10:48:06;;;;;;;16.00;2.08;;;;;;;;;;5029113;28;20120;-57
2022/03/17 10:50:41;;;;;;;8.68;1.30;;;;;;;;;;5027008;28;20032;-57
2022/03/17 10:53:07;;;;;;;10.60;1.00;;;;;;;;;;5026743;28;20087;-57
2022/03/17 10:55:35;;;;;;;13.38;1.83;;;;;;;;;;5037173;28;20033;-57
2022/03/17 10:58:18;;;;;;;11.20;1.58;;;;;;;;;;5031691;28;20021;-57
2022/03/17 11:00:48;;;;;;;14.80;1.67;;;;;;;;;;5032868;28;20029;-57
2022/03/17 11:03:15;;;;;;;11.43;0.93;;;;;;;;;;5009884;28;20598;-58
2022/03/17 11:05:41;;;;;;;6.88;0.85;;;;;;;;;;5036977;28;20029;-57
2022/03/17 11:08:09;;;;;;;14.82;1.83;;;;;;;;;;5029193;28;20020;-57
2022/03/17 11:10:35;;;;;;;6.63;1.05;;;;;;;;;;5031637;28;20037;-57
2022/03/17 11:13:08;;;;;;;12.60;1.38;;;;;;;;;;5028494;28;20033;-57
2022/03/17 11:15:36;;;;;;;9.35;1.52;;;;;;;;;;5023042;28;20037;-57
2022/03/17 11:18:05;;;;;;;14.90;1.85;;;;;;;;;;5034551;28;20033;-57
2022/03/17 11:20:31;;;;;;;11.68;1.42;;;;;;;;;;5036205;28;20052;-57
2022/03/17 11:23:35;;;;;;;16.15;1.60;;;;;;;;;;5029489;28;20488;-57
2022/03/17 11:26:01;;;;;;;22.90;1.90;;;;;;;;;;5010066;28;20064;-57
2022/03/17 11:28:34;;;;;;;15.45;2.05;;;;;;;;;;5027833;28;20057;-57
2022/03/17 11:31:02;;;;;;;18.05;1.45;;;;;;;;;;5029654;28;20039;-57
2022/03/17 11:33:37;;;;;;;15.65;1.33;;;;;;;;;;5026900;28;20108;-56
2022/03/17 11:36:08;;;;;;;14.65;1.92;;;;;;;;;;5021342;28;20112;-57
2022/03/17 11:38:39;;;;;;;10.40;1.63;;;;;;;;;;5028365;28;20037;-56
2022/03/17 11:41:08;;;;;;;10.18;1.60;;;;;;;;;;5028961;28;20652;-56
2022/03/17 11:43:45;;;;;;;8.75;1.25;;;;;;;;;;5028808;28;20626;-57
2022/03/17 11:46:19;;;;;;;10.27;1.15;;;;;;;;;;5023853;28;20071;-57
2022/03/17 11:48:56;;;;;;;15.27;2.30;;;;;;;;;;5020650;28;20033;-57
2022/03/17 11:51:25;;;;;;;18.83;2.00;;;;;;;;;;5017305;28;20034;-57
2022/03/17 11:53:50;;;;;;;15.18;2.38;;;;;;;;;;5020781;28;20067;-57
2022/03/17 11:56:31;;;;;;;6.43;1.33;;;;;;;;;;5019419;28;20029;-57
2022/03/17 11:58:56;;;;;;;12.68;1.30;;;;;;;;;;5018643;28;20760;-56
2022/03/17 12:01:27;;;;;;;15.13;1.50;;;;;;;;;;5027259;28;20048;-56
2022/03/17 12:03:58;;;;;;;16.02;1.38;;;;;;;;;;5025311;28;20041;-57
2022/03/17 12:06:24;;;;;;;8.32;0.82;;;;;;;;;;5024590;28;20036;-57
2022/03/17 12:09:01;;;;;;;14.90;1.95;;;;;;;;;;5003951;28;20024;-56
2022/03/17 12:11:29;;;;;;;13.82;2.25;;;;;;;;;;5029338;28;20522;-57
2022/03/17 12:16:47;;;;;;;18.00;1.83;;;;;;;;;;5029659;28;20029;-57
2022/03/17 12:19:41;;;;;;;12.38;1.20;;;;;;;;;;5014932;28;20022;-57
2022/03/17 12:22:08;;;;;;;11.93;1.23;;;;;;;;;;5020697;28;20116;-57
2022/03/17 12:24:35;;;;;;;14.10;2.00;;;;;;;;;;5030654;28;20029;-56
2022/03/17 12:27:05;;;;;;;14.25;2.20;;;;;;;;;;5035246;28;20022;-57
2022/03/17 12:29:31;;;;;;;16.20;1.88;;;;;;;;;;5031930;28;20080;-57
2022/03/17 12:32:04;;;;;;;21.42;1.90;;;;;;;;;;5028194;28;20029;-56
2022/03/17 12:34:30;;;;;;;10.23;1.35;;;;;;;;;;5010944;28;20375;-56
2022/03/17 12:36:59;;;;;;;13.85;1.80;;;;;;;;;;5020744;28;20225;-56
2022/03/17 12:39:29;;;;;;;16.52;2.30;;;;;;;;;;5025205;28;20042;-56
2022/03/17 12:41:59;;;;;;;12.65;1.58;;;;;;;;;;5020809;28;20622;-57
2022/03/17 12:44:27;;;;;;;21.70;1.80;;;;;;;;;;5011949;28;20037;-56
2022/03/17 12:46:53;;;;;;;22.50;3.35;;;;;;;;;;5010338;28;20129;-57
2022/03/17 12:49:20;;;;;;;21.75;2.90;;;;;;;;;;5023816;28;20080;-57
2022/03/17 12:51:47;;;;;;;14.93;1.65;;;;;;;;;;5019629;28;20029;-57
2022/03/17 12:54:13;;;;;;;13.55;1.60;;;;;;;;;;5024375;28;20445;-57
2022/03/17 12:56:50;;;;;;;20.88;2.40;;;;;;;;;;5009056;28;20033;-57
2022/03/17 12:59:15;;;;;;;15.48;1.73;;;;;;;;;;5026872;28;20036;-57
2022/03/17 13:01:42;;;;;;;16.13;2.00;;;;;;;;;;5024888;28;20392;-56
2022/03/17 13:04:07;;;;;;;14.52;2.13;;;;;;;;;;5026474;28;20060;-58
2022/03/17 13:06:54;;;;;;;10.18;1.95;;;;;;;;;;5037036;28;20491;-57
2022/03/17 13:09:29;;;;;;;23.42;2.90;;;;;;;;;;5033684;28;20032;-57
2022/03/17 13:14:53;;;;;;;18.67;2.55;;;;;;;;;;5040793;28;20519;-57
2022/03/17 13:17:39;;;;;;;20.15;2.00;;;;;;;;;;5036270;28;20041;-57
2022/03/17 13:20:22;;;;;;;19.73;2.40;;;;;;;;;;5031242;28;20530;-57
2022/03/17 13:22:59;;;;;;;11.55;1.95;;;;;;;;;;5036126;28;20021;-57
2022/03/17 13:25:26;;;;;;;14.48;2.15;;;;;;;;;;5036750;28;20040;-57
2022/03/17 13:28:01;;;;;;;21.05;2.17;;;;;;;;;;5035606;28;20022;-57
2022/03/17 13:30:28;;;;;;;24.75;2.53;;;;;;;;;;5033477;28;20314;-58
2022/03/17 13:33:02;;;;;;;14.38;2.50;;;;;;;;;;5031633;28;20036;-57
2022/03/17 13:35:35;;;;;;;21.35;2.50;;;;;;;;;;5046188;28;20025;-57
2022/03/17 13:38:17;;;;;;;15.77;3.33;;;;;;;;;;5036356;28;20029;-57
2022/03/17 13:40:55;;;;;;;11.27;1.88;;;;;;;;;;5034130;28;20078;-57
2022/03/17 13:44:01;;;;;;;18.48;2.55;;;;;;;;;;5039072;28;20461;-57
2022/03/17 13:46:31;;;;;;;16.23;2.63;;;;;;;;;;5031398;28;20091;-57
2022/03/17 13:49:13;;;;;;;18.00;2.50;;;;;;;;;;5039144;28;20020;-57
2022/03/17 13:51:38;;;;;;;13.40;1.88;;;;;;;;;;5035717;28;20041;-57
2022/03/17 13:54:04;;;;;;;11.25;2.10;;;;;;;;;;5032046;28;20385;-57
2022/03/17 13:56:30;;;;;;;13.32;1.90;;;;;;;;;;5031019;28;20037;-57
2022/03/17 13:58:58;;;;;;;14.38;1.90;;;;;;;;;;5034171;28;20471;-57
2022/03/17 14:01:25;;;;;;;10.40;1.60;;;;;;;;;;5035991;28;20050;-57
2022/03/17 14:04:06;;;;;;;12.65;2.05;;;;;;;;;;5027715;28;20049;-57
2022/03/17 14:06:33;;;;;;;14.30;1.75;;;;;;;;;;5025062;28;20436;-57
2022/03/17 14:09:07;;;;;;;16.77;1.85;;;;;;;;;;5033047;28;20406;-56
2022/03/17 14:11:34;;;;;;;14.95;1.65;;;;;;;;;;5037247;28;20032;-57
2022/03/17 14:14:04;;;;;;;19.75;1.33;;;;;;;;;;5029660;28;20053;-58
2022/03/17 14:16:32;;;;;;;16.10;1.75;;;;;;;;;;5036226;28;20047;-57
2022/03/17 14:19:02;;;;;;;14.85;2.35;;;;;;;;;;5029844;28;20029;-58
2022/03/17 14:21:29;;;;;;;16.90;1.63;;;;;;;;;;5040037;28;20034;-58
2022/03/17 14:24:12;;;;;;;13.50;1.75;;;;;;;;;;5031256;28;20071;-57
2022/03/17 14:26:42;;;;;;;17.25;1.85;;;;;;;;;;5041736;28;20028;-57
2022/03/17 14:29:10;;;;;;;8.10;1.70;;;;;;;;;;5032586;28;20106;-58
2022/03/17 14:31:38;;;;;;;17.77;1.83;;;;;;;;;;5028661;28;20032;-58
2022/03/17 14:34:05;;;;;;;12.05;1.88;;;;;;;;;;5042640;28;20036;-58
2022/03/17 14:36:33;;;;;;;17.40;1.83;;;;;;;;;;5044775;28;20112;-57
2022/03/17 14:39:00;;;;;;;10.18;1.65;;;;;;;;;;5034480;28;20021;-58
2022/03/17 14:41:26;;;;;;;10.13;2.00;;;;;;;;;;5041369;28;20021;-58
2022/03/17 14:43:54;;;;;;;16.73;1.88;;;;;;;;;;5040779;28;20029;-58
2022/03/17 14:46:23;;;;;;;12.70;2.05;;;;;;;;;;5023449;28;20431;-58
2022/03/17 14:48:50;;;;;;;12.45;1.73;;;;;;;;;;5000513;28;23279;-56
2022/03/17 14:51:16;;;;;;;14.40;2.78;;;;;;;;;;5004283;28;20506;-58
2022/03/17 14:53:42;;;;;;;16.20;3.15;;;;;;;;;;5022556;28;20390;-58
2022/03/17 14:56:11;;;;;;;15.90;2.03;;;;;;;;;;5025787;28;20029;-58
2022/03/17 14:58:41;;;;;;;16.98;2.80;;;;;;;;;;5008426;28;20129;-58
2022/03/17 15:01:09;;;;;;;16.88;2.55;;;;;;;;;;5030930;28;20484;-58
2022/03/17 15:03:34;;;;;;;19.10;2.30;;;;;;;;;;5019625;28;20041;-58